SULS

Details ICAO SULS (PDP)
Name Carlos Curbelo Int'l
Region Uruguay
Timezone America/Montevideo (UTC-3.0)
Plans Departing 46
Arriving 72
Stats Elevation 95 ft / 29 m (AMSL)
Location -34.857200° -55.097500°
Runways 2
Magnetic Variation 11.712° W
Sunrise 2018-12-19 08:23:55 UTC / 2018-12-19 05:23:55 Local
Sunset 2018-12-19 22:53:39 UTC / 2018-12-19 19:53:39 Local
Advertisement - Login to hide

Runways

ID Width Length Bearing (true/mag) Surface Threshold Overrun Markings Lighting
01 125 ft / 38 m 5,254 ft / 1,602 m 357.68° / 9.39° ASPHALT 0 ft / 0 m 0 ft / 0 m VISUAL EDGE THRESHOLD SALS REIL-OMNI
08 148 ft / 45 m 7,005 ft / 2,135 m 72.35° / 84.06° ASPHALT 0 ft / 0 m 0 ft / 0 m APP EDGE THRESHOLD SALS REIL-OMNI
19 125 ft / 38 m 5,254 ft / 1,602 m 177.68° / 189.39° ASPHALT 0 ft / 0 m 0 ft / 0 m VISUAL EDGE THRESHOLD SALS REIL-OMNI
26 148 ft / 45 m 7,005 ft / 2,135 m 252.34° / 264.05° ASPHALT 0 ft / 0 m 0 ft / 0 m APP EDGE THRESHOLD SALS REIL-OMNI

Map

Weather


0- 5 10 15 20 25 30 35+ Temperature / °C

Clouds and Precipitation
Forecast for 2018-12-19 06:00 UTC. Updated 2 hours ago

Ground ~20,000 ft ~40,000 ft Winds

METAR

SULS 190500Z 06003KT 9999 FEW015 OVC023 17/15 Q1017

TAF

SULS 182330Z 1900/1924 07010KT 9999 BKN020 BKN070 TX22/1918Z TN15/1908Z TEMPO 1902/1910 5000 BR BKN015

Frequencies

Tower 122.10 MHz A/G
Tower 118.30 MHz
Warning: Do not use this data for real-world aviation or navigation. No guarantee of current accuracy is given.